sensor_id;sensor_type;location;lat;lon;timestamp;temperature;humidity
9662;DHT22;24982;52.344;12.990;2022-07-22T00:00:36;20.40;99.90
9662;DHT22;24982;52.344;12.990;2022-07-22T00:03:38;20.40;99.90
9662;DHT22;24982;52.344;12.990;2022-07-22T00:06:40;20.40;99.90
9662;DHT22;24982;52.344;12.990;2022-07-22T00:09:42;20.40;99.90
9662;DHT22;24982;52.344;12.990;2022-07-22T00:12:44;20.30;99.90
9662;DHT22;24982;52.344;12.990;2022-07-22T00:15:48;20.30;99.90
9662;DHT22;24982;52.344;12.990;2022-07-22T00:18:50;20.20;99.90
9662;DHT22;24982;52.344;12.990;2022-07-22T00:21:52;20.20;99.90
9662;DHT22;24982;52.344;12.990;2022-07-22T00:24:54;20.20;99.90
9662;DHT22;24982;52.344;12.990;2022-07-22T00:27:56;20.20;99.90
9662;DHT22;24982;52.344;12.990;2022-07-22T00:31:00;20.20;99.90
9662;DHT22;24982;52.344;12.990;2022-07-22T00:34:02;20.10;99.90
9662;DHT22;24982;52.344;12.990;2022-07-22T00:37:04;20.10;99.90
9662;DHT22;24982;52.344;12.990;2022-07-22T00:40:07;20.10;99.90
9662;DHT22;24982;52.344;12.990;2022-07-22T00:43:10;20.10;99.90
9662;DHT22;24982;52.344;12.990;2022-07-22T00:46:13;20.10;99.90
9662;DHT22;24982;52.344;12.990;2022-07-22T00:49:15;20.10;99.90
9662;DHT22;24982;52.344;12.990;2022-07-22T00:52:19;20.10;99.90
9662;DHT22;24982;52.344;12.990;2022-07-22T00:55:21;20.10;99.90
9662;DHT22;24982;52.344;12.990;2022-07-22T00:58:23;20.10;99.90
9662;DHT22;24982;52.344;12.990;2022-07-22T01:01:27;20.00;99.90
9662;DHT22;24982;52.344;12.990;2022-07-22T01:04:29;19.90;99.90
9662;DHT22;24982;52.344;12.990;2022-07-22T01:07:31;19.90;99.90
9662;DHT22;24982;52.344;12.990;2022-07-22T01:10:33;19.90;99.90
9662;DHT22;24982;52.344;12.990;2022-07-22T01:13:36;19.90;99.90
9662;DHT22;24982;52.344;12.990;2022-07-22T01:16:39;19.90;99.90
9662;DHT22;24982;52.344;12.990;2022-07-22T01:19:42;19.90;99.90
9662;DHT22;24982;52.344;12.990;2022-07-22T01:22:46;19.90;99.90
9662;DHT22;24982;52.344;12.990;2022-07-22T01:25:48;19.80;99.90
9662;DHT22;24982;52.344;12.990;2022-07-22T01:28:50;19.80;99.90
9662;DHT22;24982;52.344;12.990;2022-07-22T01:31:52;19.70;99.90
9662;DHT22;24982;52.344;12.990;2022-07-22T01:34:54;19.60;99.90
9662;DHT22;24982;52.344;12.990;2022-07-22T01:37:58;19.60;99.90
9662;DHT22;24982;52.344;12.990;2022-07-22T01:41:00;19.60;99.90
9662;DHT22;24982;52.344;12.990;2022-07-22T01:44:03;19.60;99.90
9662;DHT22;24982;52.344;12.990;2022-07-22T01:47:05;19.50;99.90
9662;DHT22;24982;52.344;12.990;2022-07-22T01:50:09;19.50;99.90
9662;DHT22;24982;52.344;12.990;2022-07-22T01:53:13;19.50;99.90
9662;DHT22;24982;52.344;12.990;2022-07-22T01:56:16;19.50;99.90
9662;DHT22;24982;52.344;12.990;2022-07-22T01:59:23;19.50;99.90
9662;DHT22;24982;52.344;12.990;2022-07-22T02:02:25;19.50;99.90
9662;DHT22;24982;52.344;12.990;2022-07-22T02:05:27;19.50;99.90
9662;DHT22;24982;52.344;12.990;2022-07-22T02:08:35;19.40;99.90
9662;DHT22;24982;52.344;12.990;2022-07-22T02:12:00;19.40;99.90
9662;DHT22;24982;52.344;12.990;2022-07-22T02:15:07;19.40;99.90
9662;DHT22;24982;52.344;12.990;2022-07-22T02:18:10;19.40;99.90
9662;DHT22;24982;52.344;12.990;2022-07-22T02:21:16;19.40;99.90
9662;DHT22;24982;52.344;12.990;2022-07-22T02:24:19;19.40;99.90
9662;DHT22;24982;52.344;12.990;2022-07-22T02:27:21;19.40;99.90
9662;DHT22;24982;52.344;12.990;2022-07-22T02:30:23;19.40;99.90
9662;DHT22;24982;52.344;12.990;2022-07-22T02:33:25;19.40;99.90
9662;DHT22;24982;52.344;12.990;2022-07-22T02:36:27;19.40;99.90
9662;DHT22;24982;52.344;12.990;2022-07-22T02:39:31;19.40;99.90
9662;DHT22;24982;52.344;12.990;2022-07-22T02:42:33;19.40;99.90
9662;DHT22;24982;52.344;12.990;2022-07-22T02:45:36;19.40;99.90
9662;DHT22;24982;52.344;12.990;2022-07-22T02:48:38;19.30;99.90
9662;DHT22;24982;52.344;12.990;2022-07-22T02:51:43;19.30;99.90
9662;DHT22;24982;52.344;12.990;2022-07-22T02:54:48;19.40;99.90
9662;DHT22;24982;52.344;12.990;2022-07-22T02:57:50;19.40;99.90
9662;DHT22;24982;52.344;12.990;2022-07-22T03:00:52;19.40;99.90
9662;DHT22;24982;52.344;12.990;2022-07-22T03:03:54;19.40;99.90
9662;DHT22;24982;52.344;12.990;2022-07-22T03:06:58;19.40;99.90
9662;DHT22;24982;52.344;12.990;2022-07-22T03:10:03;19.50;99.90
9662;DHT22;24982;52.344;12.990;2022-07-22T03:13:07;19.50;99.90
9662;DHT22;24982;52.344;12.990;2022-07-22T03:16:09;19.50;99.90
9662;DHT22;24982;52.344;12.990;2022-07-22T03:19:12;19.40;99.90
9662;DHT22;24982;52.344;12.990;2022-07-22T03:22:14;19.50;99.90
9662;DHT22;24982;52.344;12.990;2022-07-22T03:25:18;19.40;99.90
9662;DHT22;24982;52.344;12.990;2022-07-22T03:28:21;19.50;99.90
9662;DHT22;24982;52.344;12.990;2022-07-22T03:31:23;19.40;99.90
9662;DHT22;24982;52.344;12.990;2022-07-22T03:34:25;19.40;99.90
9662;DHT22;24982;52.344;12.990;2022-07-22T03:37:36;19.40;99.90
9662;DHT22;24982;52.344;12.990;2022-07-22T03:40:40;19.30;99.90
9662;DHT22;24982;52.344;12.990;2022-07-22T03:43:42;19.20;99.90
9662;DHT22;24982;52.344;12.990;2022-07-22T03:46:45;19.20;99.90
9662;DHT22;24982;52.344;12.990;2022-07-22T03:49:49;19.20;99.90
9662;DHT22;24982;52.344;12.990;2022-07-22T03:52:58;19.20;99.90
9662;DHT22;24982;52.344;12.990;2022-07-22T03:56:01;19.20;99.90
9662;DHT22;24982;52.344;12.990;2022-07-22T03:59:05;19.20;99.90
9662;DHT22;24982;52.344;12.990;2022-07-22T04:02:08;19.20;99.90
9662;DHT22;24982;52.344;12.990;2022-07-22T04:05:11;19.20;99.90
9662;DHT22;24982;52.344;12.990;2022-07-22T04:08:13;19.20;99.90
9662;DHT22;24982;52.344;12.990;2022-07-22T04:11:16;19.20;99.90
9662;DHT22;24982;52.344;12.990;2022-07-22T04:14:19;19.30;99.90
9662;DHT22;24982;52.344;12.990;2022-07-22T04:17:21;19.20;99.90
9662;DHT22;24982;52.344;12.990;2022-07-22T04:20:23;19.20;99.90
9662;DHT22;24982;52.344;12.990;2022-07-22T04:23:45;19.20;99.90
9662;DHT22;24982;52.344;12.990;2022-07-22T04:26:53;19.20;99.90
9662;DHT22;24982;52.344;12.990;2022-07-22T04:29:57;19.20;99.90
9662;DHT22;24982;52.344;12.990;2022-07-22T04:32:59;19.20;99.90
9662;DHT22;24982;52.344;12.990;2022-07-22T04:36:02;19.20;99.90
9662;DHT22;24982;52.344;12.990;2022-07-22T04:39:04;19.30;99.90
9662;DHT22;24982;52.344;12.990;2022-07-22T04:42:08;19.40;99.90
9662;DHT22;24982;52.344;12.990;2022-07-22T04:45:11;19.50;99.90
9662;DHT22;24982;52.344;12.990;2022-07-22T04:48:14;19.60;99.90
9662;DHT22;24982;52.344;12.990;2022-07-22T04:51:17;19.60;99.90
9662;DHT22;24982;52.344;12.990;2022-07-22T04:54:22;19.60;99.90
9662;DHT22;24982;52.344;12.990;2022-07-22T04:57:29;19.70;99.90
9662;DHT22;24982;52.344;12.990;2022-07-22T05:00:33;19.70;99.90
9662;DHT22;24982;52.344;12.990;2022-07-22T05:03:37;19.80;99.90
9662;DHT22;24982;52.344;12.990;2022-07-22T05:06:40;19.80;99.90
9662;DHT22;24982;52.344;12.990;2022-07-22T05:09:42;19.80;99.90
9662;DHT22;24982;52.344;12.990;2022-07-22T05:12:48;19.90;99.90
9662;DHT22;24982;52.344;12.990;2022-07-22T05:15:50;19.90;99.90
9662;DHT22;24982;52.344;12.990;2022-07-22T05:18:52;20.00;99.90
9662;DHT22;24982;52.344;12.990;2022-07-22T05:21:55;20.00;99.90
9662;DHT22;24982;52.344;12.990;2022-07-22T05:24:57;19.90;99.90
9662;DHT22;24982;52.344;12.990;2022-07-22T05:28:00;19.90;99.90
9662;DHT22;24982;52.344;12.990;2022-07-22T05:31:12;19.90;99.90
9662;DHT22;24982;52.344;12.990;2022-07-22T05:34:14;20.00;99.90
9662;DHT22;24982;52.344;12.990;2022-07-22T05:37:20;20.00;99.90
9662;DHT22;24982;52.344;12.990;2022-07-22T05:40:23;20.00;99.90
9662;DHT22;24982;52.344;12.990;2022-07-22T05:43:26;20.10;99.90
9662;DHT22;24982;52.344;12.990;2022-07-22T05:46:28;20.10;99.90
9662;DHT22;24982;52.344;12.990;2022-07-22T05:49:31;20.10;99.90
9662;DHT22;24982;52.344;12.990;2022-07-22T05:52:38;20.10;99.90
9662;DHT22;24982;52.344;12.990;2022-07-22T05:55:40;20.10;99.90
9662;DHT22;24982;52.344;12.990;2022-07-22T05:58:43;20.10;99.90
9662;DHT22;24982;52.344;12.990;2022-07-22T06:01:47;20.20;99.90
9662;DHT22;24982;52.344;12.990;2022-07-22T06:05:15;20.20;99.90
9662;DHT22;24982;52.344;12.990;2022-07-22T06:08:17;20.20;99.90
9662;DHT22;24982;52.344;12.990;2022-07-22T06:11:25;20.30;99.90
9662;DHT22;24982;52.344;12.990;2022-07-22T06:14:28;20.30;99.90
9662;DHT22;24982;52.344;12.990;2022-07-22T06:17:30;20.30;99.90
9662;DHT22;24982;52.344;12.990;2022-07-22T06:20:34;20.40;99.90
9662;DHT22;24982;52.344;12.990;2022-07-22T06:23:37;20.40;99.90
9662;DHT22;24982;52.344;12.990;2022-07-22T06:26:40;20.50;99.90
9662;DHT22;24982;52.344;12.990;2022-07-22T06:29:43;20.60;99.90
9662;DHT22;24982;52.344;12.990;2022-07-22T06:32:46;20.70;99.90
9662;DHT22;24982;52.344;12.990;2022-07-22T06:35:48;20.80;99.90
9662;DHT22;24982;52.344;12.990;2022-07-22T06:38:51;20.90;99.90
9662;DHT22;24982;52.344;12.990;2022-07-22T06:42:12;20.90;99.90
9662;DHT22;24982;52.344;12.990;2022-07-22T06:45:28;20.90;99.90
9662;DHT22;24982;52.344;12.990;2022-07-22T06:48:40;20.90;99.90
9662;DHT22;24982;52.344;12.990;2022-07-22T06:51:42;21.00;99.90
9662;DHT22;24982;52.344;12.990;2022-07-22T06:54:45;21.00;99.90
9662;DHT22;24982;52.344;12.990;2022-07-22T06:57:53;21.00;99.90
9662;DHT22;24982;52.344;12.990;2022-07-22T07:00:56;21.00;99.90
9662;DHT22;24982;52.344;12.990;2022-07-22T07:04:21;21.10;99.90
9662;DHT22;24982;52.344;12.990;2022-07-22T07:07:24;21.10;99.90
9662;DHT22;24982;52.344;12.990;2022-07-22T07:10:31;21.20;99.90
9662;DHT22;24982;52.344;12.990;2022-07-22T07:13:40;21.20;99.90
9662;DHT22;24982;52.344;12.990;2022-07-22T07:16:44;21.10;99.90
9662;DHT22;24982;52.344;12.990;2022-07-22T07:19:46;21.00;99.90
9662;DHT22;24982;52.344;12.990;2022-07-22T07:22:48;21.00;99.90
9662;DHT22;24982;52.344;12.990;2022-07-22T07:25:51;21.00;99.90
9662;DHT22;24982;52.344;12.990;2022-07-22T07:28:53;21.20;99.90
9662;DHT22;24982;52.344;12.990;2022-07-22T07:32:11;21.20;99.90
9662;DHT22;24982;52.344;12.990;2022-07-22T07:35:14;21.30;99.90
9662;DHT22;24982;52.344;12.990;2022-07-22T07:38:16;21.50;99.90
9662;DHT22;24982;52.344;12.990;2022-07-22T07:41:19;21.70;99.90
9662;DHT22;24982;52.344;12.990;2022-07-22T07:44:25;21.80;99.90
9662;DHT22;24982;52.344;12.990;2022-07-22T07:47:28;21.90;99.90
9662;DHT22;24982;52.344;12.990;2022-07-22T07:50:31;22.00;99.90
9662;DHT22;24982;52.344;12.990;2022-07-22T07:53:33;22.00;99.90
9662;DHT22;24982;52.344;12.990;2022-07-22T07:56:36;22.00;99.90
9662;DHT22;24982;52.344;12.990;2022-07-22T07:59:39;21.90;99.90
9662;DHT22;24982;52.344;12.990;2022-07-22T08:02:43;22.00;99.90
9662;DHT22;24982;52.344;12.990;2022-07-22T08:05:45;22.20;99.90
9662;DHT22;24982;52.344;12.990;2022-07-22T08:08:51;22.40;99.90
9662;DHT22;24982;52.344;12.990;2022-07-22T08:12:04;22.70;99.90
9662;DHT22;24982;52.344;12.990;2022-07-22T08:15:33;22.80;99.90
9662;DHT22;24982;52.344;12.990;2022-07-22T08:18:42;22.90;99.90
9662;DHT22;24982;52.344;12.990;2022-07-22T08:21:46;23.00;99.90
9662;DHT22;24982;52.344;12.990;2022-07-22T08:25:00;23.00;99.90
9662;DHT22;24982;52.344;12.990;2022-07-22T08:28:03;23.00;99.90
9662;DHT22;24982;52.344;12.990;2022-07-22T08:31:05;23.10;99.90
9662;DHT22;24982;52.344;12.990;2022-07-22T08:34:09;22.90;99.90
9662;DHT22;24982;52.344;12.990;2022-07-22T08:37:11;22.80;99.90
9662;DHT22;24982;52.344;12.990;2022-07-22T08:40:15;22.60;99.90
9662;DHT22;24982;52.344;12.990;2022-07-22T08:43:18;22.60;99.90
9662;DHT22;24982;52.344;12.990;2022-07-22T08:46:20;22.60;99.90
9662;DHT22;24982;52.344;12.990;2022-07-22T08:49:50;22.70;99.90
9662;DHT22;24982;52.344;12.990;2022-07-22T08:53:04;22.80;99.90
9662;DHT22;24982;52.344;12.990;2022-07-22T08:56:07;22.90;99.90
9662;DHT22;24982;52.344;12.990;2022-07-22T08:59:09;22.90;99.90
9662;DHT22;24982;52.344;12.990;2022-07-22T09:02:12;22.80;99.90
9662;DHT22;24982;52.344;12.990;2022-07-22T09:05:18;22.80;99.90
9662;DHT22;24982;52.344;12.990;2022-07-22T09:08:21;22.90;99.90
9662;DHT22;24982;52.344;12.990;2022-07-22T09:11:43;23.00;99.90
9662;DHT22;24982;52.344;12.990;2022-07-22T09:15:06;23.30;99.90
9662;DHT22;24982;52.344;12.990;2022-07-22T09:18:44;23.30;99.90
9662;DHT22;24982;52.344;12.990;2022-07-22T09:22:03;23.60;99.90
9662;DHT22;24982;52.344;12.990;2022-07-22T09:25:28;24.00;99.90
9662;DHT22;24982;52.344;12.990;2022-07-22T09:28:54;24.30;99.90
9662;DHT22;24982;52.344;12.990;2022-07-22T09:32:03;24.10;99.90
9662;DHT22;24982;52.344;12.990;2022-07-22T09:35:21;23.80;99.90
9662;DHT22;24982;52.344;12.990;2022-07-22T09:38:29;23.60;99.90
9662;DHT22;24982;52.344;12.990;2022-07-22T09:41:32;23.40;99.90
9662;DHT22;24982;52.344;12.990;2022-07-22T09:44:35;23.40;99.90
9662;DHT22;24982;52.344;12.990;2022-07-22T09:47:49;23.50;99.90
9662;DHT22;24982;52.344;12.990;2022-07-22T09:51:09;23.70;99.90
9662;DHT22;24982;52.344;12.990;2022-07-22T09:54:31;24.00;99.90
9662;DHT22;24982;52.344;12.990;2022-07-22T09:57:33;23.90;99.90
9662;DHT22;24982;52.344;12.990;2022-07-22T10:00:37;23.90;99.90
9662;DHT22;24982;52.344;12.990;2022-07-22T10:03:40;24.00;99.90
9662;DHT22;24982;52.344;12.990;2022-07-22T10:06:44;24.40;99.90
9662;DHT22;24982;52.344;12.990;2022-07-22T10:12:58;26.40;99.90
9662;DHT22;24982;52.344;12.990;2022-07-22T10:16:00;26.70;99.90
9662;DHT22;24982;52.344;12.990;2022-07-22T10:19:03;26.30;99.90
9662;DHT22;24982;52.344;12.990;2022-07-22T10:25:10;25.10;99.90
9662;DHT22;24982;52.344;12.990;2022-07-22T10:28:21;24.80;99.90
9662;DHT22;24982;52.344;12.990;2022-07-22T10:31:24;24.50;99.90
9662;DHT22;24982;52.344;12.990;2022-07-22T10:34:26;24.60;99.90
9662;DHT22;24982;52.344;12.990;2022-07-22T10:37:38;24.90;99.90
9662;DHT22;24982;52.344;12.990;2022-07-22T10:40:51;25.10;99.90
9662;DHT22;24982;52.344;12.990;2022-07-22T10:43:53;25.20;99.90
9662;DHT22;24982;52.344;12.990;2022-07-22T10:46:55;25.10;99.90
9662;DHT22;24982;52.344;12.990;2022-07-22T10:53:43;24.80;99.90
9662;DHT22;24982;52.344;12.990;2022-07-22T10:56:48;24.30;99.90
9662;DHT22;24982;52.344;12.990;2022-07-22T10:59:53;24.50;99.90
9662;DHT22;24982;52.344;12.990;2022-07-22T11:02:55;24.50;99.90
9662;DHT22;24982;52.344;12.990;2022-07-22T11:06:13;24.50;99.90
9662;DHT22;24982;52.344;12.990;2022-07-22T11:09:17;24.90;99.90
9662;DHT22;24982;52.344;12.990;2022-07-22T11:12:21;25.30;99.90
9662;DHT22;24982;52.344;12.990;2022-07-22T11:15:25;25.40;99.90
9662;DHT22;24982;52.344;12.990;2022-07-22T11:18:46;25.50;99.90
9662;DHT22;24982;52.344;12.990;2022-07-22T11:21:52;25.60;99.90
9662;DHT22;24982;52.344;12.990;2022-07-22T11:24:55;25.90;99.90
9662;DHT22;24982;52.344;12.990;2022-07-22T11:27:59;26.20;99.90
9662;DHT22;24982;52.344;12.990;2022-07-22T11:31:05;26.30;99.90
9662;DHT22;24982;52.344;12.990;2022-07-22T11:34:08;26.50;99.90
9662;DHT22;24982;52.344;12.990;2022-07-22T11:37:11;26.60;99.90
9662;DHT22;24982;52.344;12.990;2022-07-22T11:40:13;26.60;99.90
9662;DHT22;24982;52.344;12.990;2022-07-22T11:43:17;26.40;99.90
9662;DHT22;24982;52.344;12.990;2022-07-22T11:46:19;26.10;99.90
9662;DHT22;24982;52.344;12.990;2022-07-22T11:49:21;25.90;99.90
9662;DHT22;24982;52.344;12.990;2022-07-22T11:52:23;25.80;99.90
9662;DHT22;24982;52.344;12.990;2022-07-22T11:55:25;25.80;99.90
9662;DHT22;24982;52.344;12.990;2022-07-22T11:58:40;25.70;99.90
9662;DHT22;24982;52.344;12.990;2022-07-22T12:01:42;25.60;99.90
9662;DHT22;24982;52.344;12.990;2022-07-22T12:04:46;25.50;99.90
9662;DHT22;24982;52.344;12.990;2022-07-22T12:07:48;25.70;99.90
9662;DHT22;24982;52.344;12.990;2022-07-22T12:10:50;25.90;99.90
9662;DHT22;24982;52.344;12.990;2022-07-22T12:13:54;25.90;99.90
9662;DHT22;24982;52.344;12.990;2022-07-22T12:16:58;26.00;99.90
9662;DHT22;24982;52.344;12.990;2022-07-22T12:20:09;26.40;99.90
9662;DHT22;24982;52.344;12.990;2022-07-22T12:23:13;26.40;99.90
9662;DHT22;24982;52.344;12.990;2022-07-22T12:26:16;26.70;99.90
9662;DHT22;24982;52.344;12.990;2022-07-22T12:29:21;27.00;99.90
9662;DHT22;24982;52.344;12.990;2022-07-22T12:32:26;26.90;99.90
9662;DHT22;24982;52.344;12.990;2022-07-22T12:35:28;26.50;99.90
9662;DHT22;24982;52.344;12.990;2022-07-22T12:38:31;26.20;99.90
9662;DHT22;24982;52.344;12.990;2022-07-22T12:41:33;26.00;99.90
9662;DHT22;24982;52.344;12.990;2022-07-22T12:44:37;26.20;99.90
9662;DHT22;24982;52.344;12.990;2022-07-22T12:47:47;26.90;99.90
9662;DHT22;24982;52.344;12.990;2022-07-22T12:50:57;27.40;99.90
9662;DHT22;24982;52.344;12.990;2022-07-22T12:53:59;27.20;99.90
9662;DHT22;24982;52.344;12.990;2022-07-22T12:57:02;27.00;99.90
9662;DHT22;24982;52.344;12.990;2022-07-22T13:00:07;26.90;99.90
9662;DHT22;24982;52.344;12.990;2022-07-22T13:03:10;27.10;99.90
9662;DHT22;24982;52.344;12.990;2022-07-22T13:06:12;27.10;99.90
9662;DHT22;24982;52.344;12.990;2022-07-22T13:09:14;27.20;99.90
9662;DHT22;24982;52.344;12.990;2022-07-22T13:12:16;27.20;99.90
9662;DHT22;24982;52.344;12.990;2022-07-22T13:15:20;27.20;99.90
9662;DHT22;24982;52.344;12.990;2022-07-22T13:18:23;27.10;99.90
9662;DHT22;24982;52.344;12.990;2022-07-22T13:21:25;26.90;99.90
9662;DHT22;24982;52.344;12.990;2022-07-22T13:24:27;26.90;99.90
9662;DHT22;24982;52.344;12.990;2022-07-22T13:27:29;27.00;99.90
9662;DHT22;24982;52.344;12.990;2022-07-22T13:30:32;26.90;99.90
9662;DHT22;24982;52.344;12.990;2022-07-22T13:33:34;26.70;99.90
9662;DHT22;24982;52.344;12.990;2022-07-22T13:36:36;26.50;99.90
9662;DHT22;24982;52.344;12.990;2022-07-22T13:39:38;26.50;99.90
9662;DHT22;24982;52.344;12.990;2022-07-22T13:42:42;26.40;99.90
9662;DHT22;24982;52.344;12.990;2022-07-22T13:45:46;26.20;99.90
9662;DHT22;24982;52.344;12.990;2022-07-22T13:48:48;26.30;99.90
9662;DHT22;24982;52.344;12.990;2022-07-22T13:51:50;26.50;99.90
9662;DHT22;24982;52.344;12.990;2022-07-22T13:54:52;26.70;99.90
9662;DHT22;24982;52.344;12.990;2022-07-22T13:57:54;26.90;99.90
9662;DHT22;24982;52.344;12.990;2022-07-22T14:00:59;27.00;99.90
9662;DHT22;24982;52.344;12.990;2022-07-22T14:04:01;27.00;99.90
9662;DHT22;24982;52.344;12.990;2022-07-22T14:07:04;27.00;99.90
9662;DHT22;24982;52.344;12.990;2022-07-22T14:10:07;27.00;99.90
9662;DHT22;24982;52.344;12.990;2022-07-22T14:13:09;27.10;99.90
9662;DHT22;24982;52.344;12.990;2022-07-22T14:16:13;27.10;99.90
9662;DHT22;24982;52.344;12.990;2022-07-22T14:19:32;27.10;99.90
9662;DHT22;24982;52.344;12.990;2022-07-22T14:22:35;27.20;99.90
9662;DHT22;24982;52.344;12.990;2022-07-22T14:25:37;27.10;99.90
9662;DHT22;24982;52.344;12.990;2022-07-22T14:28:39;27.10;99.90
9662;DHT22;24982;52.344;12.990;2022-07-22T14:31:43;27.10;99.90
9662;DHT22;24982;52.344;12.990;2022-07-22T14:34:48;27.00;99.90
9662;DHT22;24982;52.344;12.990;2022-07-22T14:37:50;27.00;99.90
9662;DHT22;24982;52.344;12.990;2022-07-22T14:40:52;26.90;99.90
9662;DHT22;24982;52.344;12.990;2022-07-22T14:43:54;26.90;99.90
9662;DHT22;24982;52.344;12.990;2022-07-22T14:46:58;26.80;99.90
9662;DHT22;24982;52.344;12.990;2022-07-22T14:50:00;26.90;99.90
9662;DHT22;24982;52.344;12.990;2022-07-22T14:53:02;26.90;99.90
9662;DHT22;24982;52.344;12.990;2022-07-22T14:56:05;26.90;99.90
9662;DHT22;24982;52.344;12.990;2022-07-22T14:59:07;27.00;99.90
9662;DHT22;24982;52.344;12.990;2022-07-22T15:02:10;27.30;99.90
9662;DHT22;24982;52.344;12.990;2022-07-22T15:05:13;27.80;99.90
9662;DHT22;24982;52.344;12.990;2022-07-22T15:08:15;28.20;99.90
9662;DHT22;24982;52.344;12.990;2022-07-22T15:11:18;28.60;99.90
9662;DHT22;24982;52.344;12.990;2022-07-22T15:14:20;29.10;99.90
9662;DHT22;24982;52.344;12.990;2022-07-22T15:17:23;29.80;99.90
9662;DHT22;24982;52.344;12.990;2022-07-22T15:20:26;29.90;99.90
9662;DHT22;24982;52.344;12.990;2022-07-22T15:23:28;30.00;99.90
9662;DHT22;24982;52.344;12.990;2022-07-22T15:26:31;29.50;99.90
9662;DHT22;24982;52.344;12.990;2022-07-22T15:29:33;29.80;99.90
9662;DHT22;24982;52.344;12.990;2022-07-22T15:32:37;29.90;99.90
9662;DHT22;24982;52.344;12.990;2022-07-22T15:35:39;29.60;99.90
9662;DHT22;24982;52.344;12.990;2022-07-22T15:38:41;29.10;99.90
9662;DHT22;24982;52.344;12.990;2022-07-22T15:41:43;28.80;99.90
9662;DHT22;24982;52.344;12.990;2022-07-22T15:44:46;28.10;99.90
9662;DHT22;24982;52.344;12.990;2022-07-22T15:47:49;28.00;99.90
9662;DHT22;24982;52.344;12.990;2022-07-22T15:50:51;27.70;99.90
9662;DHT22;24982;52.344;12.990;2022-07-22T15:56:55;27.10;99.90
9662;DHT22;24982;52.344;12.990;2022-07-22T16:00:17;27.00;99.90
9662;DHT22;24982;52.344;12.990;2022-07-22T16:03:20;26.80;99.90
9662;DHT22;24982;52.344;12.990;2022-07-22T16:06:22;26.50;99.90
9662;DHT22;24982;52.344;12.990;2022-07-22T16:09:24;26.30;99.90
9662;DHT22;24982;52.344;12.990;2022-07-22T16:12:26;26.10;99.90
9662;DHT22;24982;52.344;12.990;2022-07-22T16:15:28;25.80;99.90
9662;DHT22;24982;52.344;12.990;2022-07-22T16:18:31;25.70;99.90
9662;DHT22;24982;52.344;12.990;2022-07-22T16:21:33;25.50;99.90
9662;DHT22;24982;52.344;12.990;2022-07-22T16:24:35;25.40;99.90
9662;DHT22;24982;52.344;12.990;2022-07-22T16:27:37;25.20;99.90
9662;DHT22;24982;52.344;12.990;2022-07-22T16:30:39;25.20;99.90
9662;DHT22;24982;52.344;12.990;2022-07-22T16:33:43;25.10;99.90
9662;DHT22;24982;52.344;12.990;2022-07-22T16:36:45;25.00;99.90
9662;DHT22;24982;52.344;12.990;2022-07-22T16:39:48;25.00;99.90
9662;DHT22;24982;52.344;12.990;2022-07-22T16:42:50;25.00;99.90
9662;DHT22;24982;52.344;12.990;2022-07-22T16:45:52;24.90;99.90
9662;DHT22;24982;52.344;12.990;2022-07-22T16:48:56;24.80;99.90
9662;DHT22;24982;52.344;12.990;2022-07-22T16:51:58;24.70;99.90
9662;DHT22;24982;52.344;12.990;2022-07-22T16:55:00;24.60;99.90
9662;DHT22;24982;52.344;12.990;2022-07-22T16:58:02;24.60;99.90
9662;DHT22;24982;52.344;12.990;2022-07-22T17:01:05;24.50;99.90
9662;DHT22;24982;52.344;12.990;2022-07-22T17:04:08;24.50;99.90
9662;DHT22;24982;52.344;12.990;2022-07-22T17:07:10;24.40;99.90
9662;DHT22;24982;52.344;12.990;2022-07-22T17:10:12;24.40;99.90
9662;DHT22;24982;52.344;12.990;2022-07-22T17:13:14;24.40;99.90
9662;DHT22;24982;52.344;12.990;2022-07-22T17:16:16;24.30;99.90
9662;DHT22;24982;52.344;12.990;2022-07-22T17:19:20;24.20;99.90
9662;DHT22;24982;52.344;12.990;2022-07-22T17:22:22;24.20;99.90
9662;DHT22;24982;52.344;12.990;2022-07-22T17:25:24;24.10;99.90
9662;DHT22;24982;52.344;12.990;2022-07-22T17:28:26;24.00;99.90
9662;DHT22;24982;52.344;12.990;2022-07-22T17:31:28;24.00;99.90
9662;DHT22;24982;52.344;12.990;2022-07-22T17:34:32;23.90;99.90
9662;DHT22;24982;52.344;12.990;2022-07-22T17:37:34;23.90;99.90
9662;DHT22;24982;52.344;12.990;2022-07-22T17:40:36;23.80;99.90
9662;DHT22;24982;52.344;12.990;2022-07-22T17:43:38;23.70;99.90
9662;DHT22;24982;52.344;12.990;2022-07-22T17:46:40;23.60;99.90
9662;DHT22;24982;52.344;12.990;2022-07-22T17:49:44;23.60;99.90
9662;DHT22;24982;52.344;12.990;2022-07-22T17:52:46;23.40;99.90
9662;DHT22;24982;52.344;12.990;2022-07-22T17:55:48;23.40;99.90
9662;DHT22;24982;52.344;12.990;2022-07-22T17:58:50;23.30;99.90
9662;DHT22;24982;52.344;12.990;2022-07-22T18:01:52;23.20;99.90
9662;DHT22;24982;52.344;12.990;2022-07-22T18:04:55;23.20;99.90
9662;DHT22;24982;52.344;12.990;2022-07-22T18:07:58;23.10;99.90
9662;DHT22;24982;52.344;12.990;2022-07-22T18:11:00;23.00;99.90
9662;DHT22;24982;52.344;12.990;2022-07-22T18:14:02;23.00;99.90
9662;DHT22;24982;52.344;12.990;2022-07-22T18:17:04;23.00;99.90
9662;DHT22;24982;52.344;12.990;2022-07-22T18:20:09;22.90;99.90
9662;DHT22;24982;52.344;12.990;2022-07-22T18:23:11;22.90;99.90
9662;DHT22;24982;52.344;12.990;2022-07-22T18:26:13;22.80;99.90
9662;DHT22;24982;52.344;12.990;2022-07-22T18:29:15;22.80;99.90
9662;DHT22;24982;52.344;12.990;2022-07-22T18:32:17;22.70;99.90
9662;DHT22;24982;52.344;12.990;2022-07-22T18:35:20;22.70;99.90
9662;DHT22;24982;52.344;12.990;2022-07-22T18:38:22;22.50;99.90
9662;DHT22;24982;52.344;12.990;2022-07-22T18:41:24;22.40;99.90
9662;DHT22;24982;52.344;12.990;2022-07-22T18:44:26;22.30;99.90
9662;DHT22;24982;52.344;12.990;2022-07-22T18:47:28;22.30;99.90
9662;DHT22;24982;52.344;12.990;2022-07-22T18:50:32;22.20;99.90
9662;DHT22;24982;52.344;12.990;2022-07-22T18:53:37;22.10;99.90
9662;DHT22;24982;52.344;12.990;2022-07-22T18:56:39;22.00;99.90
9662;DHT22;24982;52.344;12.990;2022-07-22T18:59:41;21.90;99.90
9662;DHT22;24982;52.344;12.990;2022-07-22T19:02:43;21.80;99.90
9662;DHT22;24982;52.344;12.990;2022-07-22T19:05:47;21.70;99.90
9662;DHT22;24982;52.344;12.990;2022-07-22T19:08:48;21.60;99.90
9662;DHT22;24982;52.344;12.990;2022-07-22T19:11:50;21.50;99.90
9662;DHT22;24982;52.344;12.990;2022-07-22T19:14:52;21.40;99.90
9662;DHT22;24982;52.344;12.990;2022-07-22T19:17:54;21.30;99.90
9662;DHT22;24982;52.344;12.990;2022-07-22T19:20:58;21.30;99.90
9662;DHT22;24982;52.344;12.990;2022-07-22T19:24:01;21.20;99.90
9662;DHT22;24982;52.344;12.990;2022-07-22T19:27:03;21.00;99.90
9662;DHT22;24982;52.344;12.990;2022-07-22T19:30:08;21.00;99.90
9662;DHT22;24982;52.344;12.990;2022-07-22T19:33:10;20.90;99.90
9662;DHT22;24982;52.344;12.990;2022-07-22T19:36:14;20.80;99.90